Pagrindinis puslapis
METAR-TAF:

METAR-TAF

Oro uostai :

Siudad Chuaresas, Meksika

platuma: 31-38N, ilguma: 106-26W, Aukštis: 1171 m

Dabartinis oras

Ataskaita buvo paskelbta 1 valandą ir 10 minutes, ne 22:40 UTC
Vėjas 12 kt iš Vakarų/Šiaurės Vakarų
Temperatūra 21°C
Drėgmė 11%
Slėgis 1018 hPa
Matomumas: 16.1 km
Mažai debesys ne aukštis 20000 ft

METAR: MMCS 302240Z 29012KT 10SM FEW200 21/M10 A3007 RMK 8/001

Laikas: 16:50 (23:50 UTC)

Prognozė

Ataskaita buvo paskelbta 6 valandos ir 0 minutes, ne 17:50 UTC
Prognozė galioja nuo 30 metu 18 UTC su 31 metu 18 UTC
Vėjas 18 kt iš Vakarų
Matomumas: 10 km
Išsisklaidę debesys ne aukštis 22000 ft
Tapsmas
nuo 31 metu 02 UTC su 31 metu 03 UTC
Vėjas 15 kt iš Šiaurės Vakarų
Nuo 31 metu 1200 UTC
Vėjas 20 kt iš Šiaurės/Šiaurės Rytų
Matomumas: 10 km
Išsisklaidę debesys ne aukštis 10000 ft
Su prošvaistėmis ne aukštis 22000 ft
Tapsmas
nuo 31 metu 17 UTC su 31 metu 18 UTC
Vėjas 8 kt iš Rytų

TAF: MMCS 301750Z 3018/3118 27018KT P6SM SCT220 BECMG 3102/3103 32015KT FM311200 02020KT P6SM SCT100 BKN220 BECMG 3117/3118 10008KT

Orai ataskaitas ir orų prognozės (METAR, TAF).

turimą stotys yra geltonos ir raudonos taškus žemėlapyje.

Perkelti pele per norėdami pamatyti stoties vardą.

Tada spustelėkite, norėdami matyti oro stebėjimo ir prognozės.

Norėdami pakeisti žemėlapį: spustelėkite ant žalios mygtukų su juodo kryžiaus žemyn,; žalią mygtuką su brūkšneliu, jei norite nutolinti; arba žalių rodyklių gretimoms žemėlapius.


METAR-TAF: